createdAt,value
2018-09-14T00:01:35.845Z,1.60
2018-09-14T00:04:05.200Z,3.07
2018-09-14T00:06:34.632Z,1.90
2018-09-14T00:09:04.598Z,3.30
2018-09-14T00:11:34.046Z,3.53
2018-09-14T00:14:03.462Z,1.67
2018-09-14T00:16:32.889Z,3.57
2018-09-14T00:19:02.197Z,1.60
2018-09-14T00:21:31.533Z,2.87
2018-09-14T00:24:00.915Z,3.43
2018-09-14T00:26:30.248Z,3.23
2018-09-14T00:28:59.537Z,3.20
2018-09-14T00:31:29.056Z,4.17
2018-09-14T00:33:58.481Z,2.40
2018-09-14T00:36:27.858Z,2.67
2018-09-14T00:38:57.147Z,4.00
2018-09-14T00:41:26.449Z,3.93
2018-09-14T00:43:55.812Z,2.73
2018-09-14T00:46:25.115Z,3.03
2018-09-14T00:48:54.487Z,2.83
2018-09-14T00:51:23.763Z,2.60
2018-09-14T00:53:52.978Z,1.93
2018-09-14T00:56:22.219Z,4.57
2018-09-14T00:58:51.425Z,4.57
2018-09-14T01:01:20.789Z,4.60
2018-09-14T01:03:50.187Z,2.93
2018-09-14T01:06:19.513Z,2.77
2018-09-14T01:08:49.034Z,3.23
2018-09-14T01:11:18.358Z,2.90
2018-09-14T01:13:47.876Z,5.30
2018-09-14T01:16:17.172Z,4.07
2018-09-14T01:18:46.460Z,2.80
2018-09-14T01:21:15.861Z,3.17
2018-09-14T01:23:45.249Z,3.87
2018-09-14T01:26:14.721Z,4.13
2018-09-14T01:28:44.135Z,4.40
2018-09-14T01:31:13.702Z,5.40
2018-09-14T01:33:43.039Z,4.67
2018-09-14T01:36:12.704Z,3.07
2018-09-14T01:38:42.403Z,7.07
2018-09-14T01:41:11.657Z,3.90
2018-09-14T01:43:40.934Z,7.43
2018-09-14T01:46:10.161Z,5.27
2018-09-14T01:48:39.493Z,4.23
2018-09-14T01:51:08.814Z,5.67
2018-09-14T01:53:38.103Z,7.03
2018-09-14T01:56:07.416Z,5.40
2018-09-14T01:58:36.714Z,7.03
2018-09-14T02:01:06.001Z,6.03
2018-09-14T02:03:35.319Z,4.87
2018-09-14T02:06:04.671Z,5.43
2018-09-14T02:08:33.998Z,6.03
2018-09-14T02:11:03.259Z,5.70
2018-09-14T02:13:32.567Z,5.40
2018-09-14T02:16:01.899Z,5.77
2018-09-14T02:18:31.270Z,5.63
2018-09-14T02:21:00.556Z,7.63
2018-09-14T02:23:30.852Z,9.30
2018-09-14T02:26:00.227Z,14.43
2018-09-14T02:28:29.536Z,11.97
2018-09-14T02:30:58.858Z,13.23
2018-09-14T02:33:28.175Z,18.33
2018-09-14T02:35:57.427Z,13.20
2018-09-14T02:38:26.703Z,20.17
2018-09-14T02:40:55.995Z,19.50
2018-09-14T02:43:25.388Z,15.03
2018-09-14T02:45:54.784Z,15.30
2018-09-14T02:48:24.225Z,15.63
2018-09-14T02:50:53.562Z,18.40
2018-09-14T02:53:22.944Z,21.73
2018-09-14T02:55:52.312Z,21.57
2018-09-14T02:58:21.682Z,21.70
2018-09-14T03:00:51.816Z,18.07
2018-09-14T03:03:21.402Z,25.23
2018-09-14T03:05:50.740Z,22.53
2018-09-14T03:08:20.015Z,22.30
2018-09-14T03:10:49.343Z,21.37
2018-09-14T03:13:18.612Z,27.50
2018-09-14T03:15:48.064Z,30.20
2018-09-14T03:18:17.360Z,23.57
2018-09-14T03:20:46.606Z,24.17
2018-09-14T03:23:15.811Z,24.43
2018-09-14T03:25:45.158Z,22.60
2018-09-14T03:28:14.581Z,27.07
2018-09-14T03:30:43.888Z,22.63
2018-09-14T03:33:13.182Z,25.50
2018-09-14T03:35:42.460Z,25.47
2018-09-14T03:38:11.750Z,23.73
2018-09-14T03:40:41.045Z,25.80
2018-09-14T03:43:10.341Z,24.33
2018-09-14T03:45:39.599Z,30.87
2018-09-14T03:48:08.843Z,25.60
2018-09-14T03:50:38.112Z,33.70
2018-09-14T03:53:07.444Z,30.17
2018-09-14T03:55:36.770Z,28.07
2018-09-14T03:58:05.977Z,31.47
2018-09-14T04:00:35.297Z,27.40
2018-09-14T04:03:04.606Z,32.40
2018-09-14T04:05:33.920Z,26.20
2018-09-14T04:08:03.189Z,23.60
2018-09-14T04:10:32.585Z,24.70
2018-09-14T04:13:01.886Z,25.43
2018-09-14T04:15:31.222Z,32.13
2018-09-14T04:18:00.616Z,24.10
2018-09-14T04:20:29.944Z,26.57
2018-09-14T04:23:05.892Z,28.43
2018-09-14T04:25:35.449Z,24.30
2018-09-14T04:28:04.877Z,26.70
2018-09-14T04:30:34.344Z,28.00
2018-09-14T04:33:03.740Z,21.50
2018-09-14T04:35:33.342Z,29.40
2018-09-14T04:38:02.605Z,28.73
2018-09-14T04:40:31.911Z,31.97
2018-09-14T04:43:01.175Z,31.40
2018-09-14T04:45:30.600Z,31.30
2018-09-14T04:47:59.947Z,35.97
2018-09-14T04:50:29.307Z,33.60
2018-09-14T04:52:58.653Z,39.70
2018-09-14T04:55:27.963Z,38.33
2018-09-14T04:57:57.307Z,56.17
2018-09-14T05:00:26.541Z,41.07
2018-09-14T05:02:55.816Z,41.97
2018-09-14T05:05:25.104Z,41.37
2018-09-14T05:07:54.386Z,44.00
2018-09-14T05:10:23.699Z,46.47
2018-09-14T05:12:53.030Z,39.23
2018-09-14T05:15:22.529Z,47.03
2018-09-14T05:17:52.009Z,41.27
2018-09-14T05:20:21.328Z,40.57
2018-09-14T05:22:50.595Z,39.67
2018-09-14T05:25:19.938Z,42.63
2018-09-14T05:27:49.176Z,50.30
2018-09-14T05:30:18.559Z,44.33
2018-09-14T05:33:03.060Z,41.60
2018-09-14T05:35:34.521Z,48.70
2018-09-14T05:38:03.941Z,38.67
2018-09-14T05:40:33.631Z,51.67
2018-09-14T05:43:03.383Z,40.53
2018-09-14T05:45:47.257Z,57.10
2018-09-14T05:48:23.928Z,43.37
2018-09-14T05:51:01.515Z,44.00
2018-09-14T05:53:36.976Z,41.20
2018-09-14T05:56:18.548Z,46.20
2018-09-14T05:59:05.357Z,39.67
2018-09-14T06:04:33.876Z,46.97
2018-09-14T06:07:03.451Z,40.17
2018-09-14T06:09:35.902Z,41.20
2018-09-14T06:12:05.718Z,40.23
2018-09-14T06:14:36.457Z,42.57
2018-09-14T06:17:06.196Z,44.93
2018-09-14T06:19:35.599Z,45.67
2018-09-14T06:22:05.053Z,38.70
2018-09-14T06:24:34.422Z,36.67
2018-09-14T06:27:03.773Z,42.77
2018-09-14T06:29:33.718Z,34.20
2018-09-14T06:32:03.185Z,39.90
2018-09-14T06:34:32.621Z,34.80
2018-09-14T06:37:02.081Z,34.47
2018-09-14T06:39:32.478Z,36.07
2018-09-14T06:42:01.916Z,34.40
2018-09-14T06:44:31.348Z,35.73
2018-09-14T06:47:00.754Z,32.47
2018-09-14T06:49:30.115Z,28.20
2018-09-14T06:51:59.580Z,31.00
2018-09-14T06:54:29.614Z,32.00
2018-09-14T06:56:59.984Z,30.00
2018-09-14T06:59:29.381Z,27.73
2018-09-14T07:01:59.436Z,27.13
2018-09-14T07:04:28.780Z,33.63
2018-09-14T07:07:00.571Z,26.53
2018-09-14T07:12:08.737Z,26.13
2018-09-14T07:14:40.222Z,22.43
2018-09-14T07:17:11.556Z,17.67
2018-09-14T07:19:41.797Z,19.20
2018-09-14T07:22:17.759Z,18.23
2018-09-14T07:25:06.388Z,15.43
2018-09-14T07:27:39.162Z,24.03
2018-09-14T07:30:08.769Z,29.17
2018-09-14T07:32:39.158Z,19.97
2018-09-14T07:35:09.894Z,22.97
2018-09-14T07:37:40.056Z,25.47
2018-09-14T07:40:13.398Z,26.10
2018-09-14T07:42:44.104Z,23.17
2018-09-14T07:45:15.784Z,21.87
2018-09-14T07:51:06.099Z,19.87
2018-09-14T07:53:37.170Z,20.63
2018-09-14T07:56:06.494Z,24.10
2018-09-14T07:58:36.241Z,21.77
2018-09-14T08:01:07.744Z,24.13
2018-09-14T08:03:41.141Z,22.63
2018-09-14T08:06:11.640Z,20.27
2018-09-14T08:08:43.782Z,19.33
2018-09-14T08:11:13.400Z,19.23
2018-09-14T08:13:44.344Z,22.13
2018-09-14T08:16:18.211Z,17.73
2018-09-14T08:18:49.178Z,15.93
2018-09-14T08:21:19.646Z,17.23
2018-09-14T08:23:50.826Z,14.53
2018-09-14T08:26:23.152Z,18.17
2018-09-14T08:28:57.002Z,19.67
2018-09-14T08:31:27.297Z,19.77
2018-09-14T08:34:02.189Z,18.73
2018-09-14T08:36:42.460Z,30.17
2018-09-14T08:39:13.782Z,27.53
2018-09-14T08:41:44.499Z,18.27
2018-09-14T08:44:14.387Z,15.87
2018-09-14T08:46:45.312Z,17.63
2018-09-14T08:49:14.947Z,15.40
2018-09-14T08:51:45.919Z,17.07
2018-09-14T08:54:15.737Z,16.63
2018-09-14T08:56:45.372Z,15.53
2018-09-14T08:59:15.103Z,14.10
2018-09-14T09:01:44.729Z,18.60
2018-09-14T09:04:14.165Z,18.20
2018-09-14T09:06:45.882Z,13.43
2018-09-14T09:09:16.069Z,13.20
2018-09-14T09:11:45.478Z,13.23
2018-09-14T09:14:16.068Z,14.53
2018-09-14T09:16:46.817Z,10.80
2018-09-14T09:19:22.264Z,12.93
2018-09-14T09:21:51.827Z,11.97
2018-09-14T09:24:21.357Z,10.93
2018-09-14T09:26:50.812Z,12.80
2018-09-14T09:29:20.262Z,11.33
2018-09-14T09:31:49.818Z,10.77
2018-09-14T09:34:20.614Z,12.60
2018-09-14T09:36:50.249Z,13.83
2018-09-14T09:39:23.048Z,11.97
2018-09-14T09:41:52.618Z,11.23
2018-09-14T09:44:22.659Z,15.57
2018-09-14T09:47:06.630Z,12.17
2018-09-14T09:49:37.324Z,14.13
2018-09-14T09:52:07.346Z,12.73
2018-09-14T09:54:37.204Z,10.37
2018-09-14T09:57:08.760Z,9.27
2018-09-14T09:59:38.430Z,9.93
2018-09-14T10:02:13.206Z,7.87
2018-09-14T10:04:48.217Z,7.10
2018-09-14T10:07:18.229Z,10.70
2018-09-14T10:09:49.213Z,9.90
2018-09-14T10:12:21.515Z,13.07
2018-09-14T10:14:51.017Z,7.93
2018-09-14T10:17:22.025Z,9.10
2018-09-14T10:19:51.954Z,9.93
2018-09-14T10:22:22.279Z,8.50
2018-09-14T10:24:51.765Z,8.70
2018-09-14T10:27:21.124Z,10.17
2018-09-14T10:29:50.729Z,9.83
2018-09-14T10:32:20.352Z,12.67
2018-09-14T10:34:49.792Z,12.07
2018-09-14T10:37:19.365Z,13.83
2018-09-14T10:39:49.028Z,10.60
2018-09-14T10:42:21.377Z,7.87
2018-09-14T10:44:51.128Z,9.83
2018-09-14T10:47:22.186Z,12.47
2018-09-14T10:49:51.865Z,10.60
2018-09-14T10:52:23.085Z,8.90
2018-09-14T10:54:53.323Z,8.13
2018-09-14T10:57:23.063Z,7.67
2018-09-14T10:59:52.811Z,8.23
2018-09-14T11:02:23.285Z,7.37
2018-09-14T11:04:53.031Z,10.13
2018-09-14T11:07:23.019Z,9.40
2018-09-14T11:09:52.751Z,6.90
2018-09-14T11:12:22.472Z,7.43
2018-09-14T11:14:52.114Z,8.67
2018-09-14T11:17:21.923Z,7.97
2018-09-14T11:19:51.604Z,9.60
2018-09-14T11:22:22.426Z,14.10
2018-09-14T11:24:54.293Z,9.63
2018-09-14T11:27:25.911Z,8.77
2018-09-14T11:29:55.704Z,10.93
2018-09-14T11:32:29.525Z,13.20
2018-09-14T11:35:05.785Z,17.40
2018-09-14T11:37:36.071Z,10.97
2018-09-14T11:40:07.321Z,7.97
2018-09-14T11:42:38.118Z,7.20
2018-09-14T11:45:08.605Z,7.63
2018-09-14T11:47:40.336Z,13.40
2018-09-14T11:50:10.175Z,9.63
2018-09-14T11:52:40.318Z,8.43
2018-09-14T11:55:11.614Z,8.63
2018-09-14T11:58:00.038Z,10.23
2018-09-14T12:01:04.100Z,6.80
2018-09-14T12:03:38.700Z,8.47
2018-09-14T12:06:09.479Z,6.93
2018-09-14T12:08:39.354Z,7.57
2018-09-14T12:11:11.166Z,24.13
2018-09-14T12:13:45.795Z,6.87
2018-09-14T12:16:16.720Z,15.17
2018-09-14T12:18:48.693Z,12.87
2018-09-14T12:21:26.185Z,16.30
2018-09-14T12:24:16.770Z,13.43
2018-09-14T12:27:10.253Z,11.77
2018-09-14T12:29:40.353Z,11.80
2018-09-14T12:32:09.974Z,13.73
2018-09-14T12:34:41.953Z,8.93
2018-09-14T12:37:12.253Z,9.63
2018-09-14T12:39:41.943Z,11.60
2018-09-14T12:42:11.698Z,10.30
2018-09-14T12:44:41.389Z,9.93
2018-09-14T12:47:13.456Z,10.87
2018-09-14T12:49:47.381Z,10.70
2018-09-14T12:52:23.002Z,11.60
2018-09-14T12:55:00.644Z,13.43
2018-09-14T12:57:31.942Z,9.83
2018-09-14T13:00:02.258Z,14.60
2018-09-14T13:02:31.933Z,13.90
2018-09-14T13:05:01.580Z,9.10
2018-09-14T13:07:32.288Z,11.83
2018-09-14T13:10:03.708Z,9.17
2018-09-14T13:12:33.795Z,10.57
2018-09-14T13:15:06.101Z,14.27
2018-09-14T13:17:37.614Z,7.70
2018-09-14T13:20:10.250Z,7.67
2018-09-14T13:22:39.788Z,13.60
2018-09-14T13:25:10.314Z,9.70
2018-09-14T13:27:39.821Z,12.37
2018-09-14T13:30:09.385Z,11.20
2018-09-14T13:32:40.288Z,10.07
2018-09-14T13:35:09.925Z,9.50
2018-09-14T13:37:39.355Z,9.27
2018-09-14T13:40:09.174Z,8.53
2018-09-14T13:42:40.328Z,9.00
2018-09-14T13:45:10.662Z,12.73
2018-09-14T13:47:40.132Z,12.70
2018-09-14T13:50:11.923Z,10.87
2018-09-14T13:52:41.420Z,14.60
2018-09-14T13:55:10.804Z,10.03
2018-09-14T13:57:40.099Z,8.87
2018-09-14T14:00:09.568Z,8.00
2018-09-14T14:02:39.221Z,9.10
2018-09-14T14:05:09.023Z,8.00
2018-09-14T14:07:38.794Z,8.20
2018-09-14T14:10:08.395Z,9.70
2018-09-14T14:12:37.769Z,8.80
2018-09-14T14:15:07.633Z,7.63
2018-09-14T14:17:38.252Z,9.10
2018-09-14T14:20:08.071Z,8.27
2018-09-14T14:22:39.168Z,9.93
2018-09-14T14:25:09.143Z,15.43
2018-09-14T14:27:38.820Z,11.30
2018-09-14T14:30:10.624Z,9.93
2018-09-14T14:36:16.306Z,12.43
2018-09-14T14:38:57.672Z,7.83
2018-09-14T14:41:31.504Z,7.50
2018-09-14T14:44:02.878Z,13.40
2018-09-14T14:46:32.407Z,9.73
2018-09-14T14:49:09.908Z,9.83
2018-09-14T14:51:40.590Z,9.47
2018-09-14T14:54:10.011Z,10.57
2018-09-14T14:56:39.639Z,8.50
2018-09-14T14:59:09.103Z,10.17
2018-09-14T15:01:39.546Z,10.10
2018-09-14T15:04:14.687Z,10.50
2018-09-14T15:06:44.600Z,8.93
2018-09-14T15:09:14.095Z,10.30
2018-09-14T15:11:44.836Z,11.30
2018-09-14T15:14:15.664Z,10.20
2018-09-14T15:16:47.019Z,14.13
2018-09-14T15:19:16.537Z,12.10
2018-09-14T15:21:46.184Z,12.03
2018-09-14T15:24:16.415Z,8.77
2018-09-14T15:26:48.247Z,9.17
2018-09-14T15:29:18.948Z,11.80
2018-09-14T15:31:48.555Z,9.97
2018-09-14T15:34:18.125Z,12.00
2018-09-14T15:36:48.177Z,12.00
2018-09-14T15:39:17.722Z,9.80
2018-09-14T15:41:47.967Z,9.00
2018-09-14T15:44:17.493Z,9.90
2018-09-14T15:46:47.718Z,8.10
2018-09-14T15:49:17.469Z,11.97
2018-09-14T15:51:46.933Z,11.43
2018-09-14T15:54:17.372Z,16.07
2018-09-14T15:56:46.859Z,11.47
2018-09-14T15:59:16.590Z,10.80
2018-09-14T16:01:46.218Z,9.77
2018-09-14T16:04:16.796Z,12.60
2018-09-14T16:06:46.485Z,13.93
2018-09-14T16:09:15.885Z,9.33
2018-09-14T16:12:00.801Z,9.70
2018-09-14T16:14:31.321Z,8.97
2018-09-14T16:17:25.670Z,10.03
2018-09-14T16:19:59.012Z,10.30
2018-09-14T16:22:38.428Z,9.10
2018-09-14T16:25:36.845Z,9.00
2018-09-14T16:31:01.966Z,9.23
2018-09-14T16:33:37.574Z,11.10
2018-09-14T16:36:25.116Z,9.90
2018-09-14T16:39:10.624Z,10.27
2018-09-14T16:41:46.659Z,11.50
2018-09-14T16:44:24.890Z,12.30
2018-09-14T16:47:06.210Z,12.37
2018-09-14T16:49:36.433Z,12.57
2018-09-14T16:52:06.956Z,13.97
2018-09-14T16:54:37.112Z,11.07
2018-09-14T16:57:08.650Z,12.40
2018-09-14T16:59:39.993Z,9.90
2018-09-14T17:02:09.658Z,11.80
2018-09-14T17:04:42.372Z,11.67
2018-09-14T17:07:13.277Z,10.67
2018-09-14T17:09:43.618Z,12.80
2018-09-14T17:12:13.355Z,15.13
2018-09-14T17:14:42.999Z,13.93
2018-09-14T17:17:12.621Z,11.83
2018-09-14T17:19:42.204Z,14.13
2018-09-14T17:22:11.811Z,12.23
2018-09-14T17:24:41.243Z,11.00
2018-09-14T17:27:11.021Z,11.23
2018-09-14T17:29:40.588Z,9.87
2018-09-14T17:32:11.290Z,10.70
2018-09-14T17:34:42.442Z,11.57
2018-09-14T17:37:13.236Z,9.80
2018-09-14T17:39:44.589Z,10.97
2018-09-14T17:42:15.761Z,12.77
2018-09-14T17:44:50.022Z,12.63
2018-09-14T17:47:20.280Z,13.07
2018-09-14T17:49:57.135Z,12.10
2018-09-14T17:52:26.643Z,9.30
2018-09-14T17:54:56.048Z,8.80
2018-09-14T17:57:25.823Z,7.40
2018-09-14T17:59:56.812Z,10.63
2018-09-14T18:02:27.691Z,8.83
2018-09-14T18:04:58.598Z,7.57
2018-09-14T18:07:30.440Z,10.23
2018-09-14T18:10:01.781Z,11.47
2018-09-14T18:12:33.128Z,9.23
2018-09-14T18:15:03.913Z,9.43
2018-09-14T18:17:35.709Z,12.60
2018-09-14T18:20:05.409Z,9.00
2018-09-14T18:22:36.733Z,10.33
2018-09-14T18:25:07.327Z,10.60
2018-09-14T18:27:38.694Z,9.93
2018-09-14T18:30:12.178Z,11.57
2018-09-14T18:32:47.978Z,10.50
2018-09-14T18:35:29.580Z,14.60
2018-09-14T18:41:26.176Z,10.20
2018-09-14T18:44:09.097Z,9.70
2018-09-14T18:46:43.614Z,13.93
2018-09-14T18:49:17.103Z,10.03
2018-09-14T18:51:55.281Z,12.23
2018-09-14T18:54:29.741Z,14.90
2018-09-14T18:57:20.196Z,10.43
2018-09-14T18:59:50.015Z,13.37
2018-09-14T19:02:20.731Z,11.30
2018-09-14T19:05:00.223Z,12.63
2018-09-14T19:07:34.633Z,11.13
2018-09-14T19:10:07.714Z,14.13
2018-09-14T19:12:38.661Z,13.20
2018-09-14T19:18:37.994Z,13.00
2018-09-14T19:21:27.070Z,13.87
2018-09-14T19:24:04.254Z,15.27
2018-09-14T19:26:41.271Z,15.70
2018-09-14T19:29:23.203Z,14.03
2018-09-14T19:32:02.066Z,16.40
2018-09-14T19:37:26.451Z,13.00
2018-09-14T19:39:55.894Z,16.17
2018-09-14T19:42:25.457Z,18.57
2018-09-14T19:44:55.002Z,15.53
2018-09-14T19:47:25.151Z,14.30
2018-09-14T19:49:54.543Z,15.50
2018-09-14T19:52:24.087Z,17.93
2018-09-14T19:54:58.350Z,14.53
2018-09-14T19:57:44.290Z,16.37
2018-09-14T20:00:27.011Z,16.23
2018-09-14T20:03:04.449Z,14.37
2018-09-14T20:05:42.667Z,13.80
2018-09-14T20:08:23.428Z,13.30
2018-09-14T20:11:00.715Z,15.03
2018-09-14T20:16:41.374Z,15.17
2018-09-14T20:19:17.263Z,15.27
2018-09-14T20:24:41.800Z,14.97
2018-09-14T20:27:32.101Z,12.63
2018-09-14T20:30:17.548Z,14.90
2018-09-14T20:33:07.803Z,22.33
2018-09-14T20:35:53.423Z,12.83
2018-09-14T20:38:28.992Z,12.07
2018-09-14T20:41:02.222Z,13.17
2018-09-14T20:43:41.092Z,13.07
2018-09-14T20:46:16.391Z,13.10
2018-09-14T20:48:48.529Z,19.27
2018-09-14T20:51:22.343Z,11.23
2018-09-14T20:54:08.079Z,12.30
2018-09-14T20:56:51.352Z,14.37
2018-09-14T20:59:33.368Z,14.40
2018-09-14T21:02:17.931Z,11.53
2018-09-14T21:05:07.467Z,14.70
2018-09-14T21:07:45.952Z,14.53
2018-09-14T21:10:29.393Z,12.70
2018-09-14T21:13:10.191Z,14.70
2018-09-14T21:15:49.020Z,12.57
2018-09-14T21:18:22.835Z,13.57
2018-09-14T21:21:09.516Z,13.60
2018-09-14T21:23:54.436Z,15.20
2018-09-14T21:26:35.982Z,15.50
2018-09-14T21:29:24.187Z,17.43
2018-09-14T21:32:08.198Z,12.53
2018-09-14T21:34:42.265Z,13.97
2018-09-14T21:37:19.879Z,17.93
2018-09-14T21:40:01.119Z,17.43
2018-09-14T21:42:35.504Z,13.40
2018-09-14T21:45:15.233Z,14.23
2018-09-14T21:47:46.367Z,16.13
2018-09-14T21:50:17.594Z,16.73
2018-09-14T21:52:52.119Z,17.50
2018-09-14T21:55:22.577Z,14.17
2018-09-14T21:57:52.355Z,15.40
2018-09-14T22:00:29.173Z,14.73
2018-09-14T22:02:58.642Z,16.23
2018-09-14T22:05:28.456Z,17.13
2018-09-14T22:07:59.099Z,18.00
2018-09-14T22:10:43.233Z,17.40
2018-09-14T22:13:29.009Z,18.77
2018-09-14T22:15:59.795Z,14.57
2018-09-14T22:18:29.452Z,15.53
2018-09-14T22:20:59.298Z,14.43
2018-09-14T22:23:28.873Z,16.80
2018-09-14T22:25:58.283Z,13.60
2018-09-14T22:28:27.683Z,11.50
2018-09-14T22:31:07.980Z,15.97
2018-09-14T22:33:42.316Z,17.00
2018-09-14T22:36:14.692Z,15.07
2018-09-14T22:38:45.949Z,14.00
2018-09-14T22:41:17.046Z,15.27
2018-09-14T22:43:46.926Z,16.33
2018-09-14T22:46:16.547Z,12.80
2018-09-14T22:48:47.485Z,14.90
2018-09-14T22:51:19.389Z,13.70
2018-09-14T22:53:49.618Z,16.50
2018-09-14T22:56:21.151Z,16.30
2018-09-14T22:58:52.419Z,15.83
2018-09-14T23:01:22.691Z,15.40
2018-09-14T23:03:57.721Z,14.53
2018-09-14T23:06:35.110Z,16.50
2018-09-14T23:09:08.447Z,18.53
2018-09-14T23:11:42.897Z,16.73
2018-09-14T23:14:23.008Z,17.70
2018-09-14T23:16:53.454Z,15.43
2018-09-14T23:19:32.636Z,20.07
2018-09-14T23:22:08.449Z,14.40
2018-09-14T23:24:47.251Z,17.43
2018-09-14T23:27:20.530Z,16.40
2018-09-14T23:29:57.888Z,17.63
2018-09-14T23:32:36.061Z,19.77
2018-09-14T23:35:12.813Z,17.07
2018-09-14T23:38:01.490Z,17.13
2018-09-14T23:40:44.556Z,17.60
2018-09-14T23:43:21.759Z,16.73
2018-09-14T23:45:58.165Z,16.03
2018-09-14T23:48:33.248Z,19.33
2018-09-14T23:51:12.263Z,17.07
2018-09-14T23:53:50.213Z,16.30
2018-09-14T23:56:43.362Z,15.97
2018-09-14T23:59:20.171Z,15.37
